createdAt,value
2018-10-01T00:02:25.092Z,50.00
2018-10-01T00:04:53.628Z,50.00
2018-10-01T00:07:22.274Z,50.00
2018-10-01T00:09:50.892Z,50.10
2018-10-01T00:12:19.351Z,50.10
2018-10-01T00:14:47.905Z,50.10
2018-10-01T00:17:16.334Z,50.00
2018-10-01T00:19:50.127Z,50.10
2018-10-01T00:22:23.998Z,50.10
2018-10-01T00:24:52.541Z,50.10
2018-10-01T00:27:21.009Z,50.10
2018-10-01T00:29:49.513Z,50.10
2018-10-01T00:32:17.964Z,50.00
2018-10-01T00:34:46.573Z,50.00
2018-10-01T00:37:15.032Z,50.00
2018-10-01T00:39:43.564Z,50.40
2018-10-01T00:42:12.005Z,50.40
2018-10-01T00:44:40.844Z,50.40
2018-10-01T00:47:09.736Z,50.80
2018-10-01T00:49:38.262Z,51.00
2018-10-01T00:52:06.961Z,51.20
2018-10-01T00:54:35.441Z,51.30
2018-10-01T00:57:03.920Z,51.30
2018-10-01T00:59:32.517Z,51.50
2018-10-01T01:02:02.453Z,51.70
2018-10-01T01:04:31.001Z,53.50
2018-10-01T01:06:59.634Z,52.50
2018-10-01T01:09:28.310Z,52.40
2018-10-01T01:11:57.108Z,53.30
2018-10-01T01:14:25.967Z,53.60
2018-10-01T01:16:54.628Z,53.30
2018-10-01T01:19:23.233Z,53.30
2018-10-01T01:21:51.652Z,54.10
2018-10-01T01:24:20.173Z,53.70
2018-10-01T01:26:48.664Z,53.60
2018-10-01T01:29:17.127Z,53.30
2018-10-01T01:31:45.605Z,53.20
2018-10-01T01:34:14.105Z,53.10
2018-10-01T01:36:42.581Z,53.20
2018-10-01T01:39:11.564Z,53.60
2018-10-01T01:41:40.196Z,54.00
2018-10-01T01:44:08.837Z,53.90
2018-10-01T01:46:37.517Z,54.20
2018-10-01T01:49:06.534Z,54.20
2018-10-01T01:51:35.040Z,54.60
2018-10-01T01:54:03.524Z,54.90
2018-10-01T01:56:32.184Z,55.10
2018-10-01T01:59:00.750Z,55.40
2018-10-01T02:01:29.524Z,55.60
2018-10-01T02:03:58.270Z,56.00
2018-10-01T02:06:27.005Z,56.20
2018-10-01T02:08:55.544Z,56.70
2018-10-01T02:11:24.270Z,57.00
2018-10-01T02:13:52.783Z,57.50
2018-10-01T02:16:21.383Z,57.90
2018-10-01T02:18:49.856Z,58.50
2018-10-01T02:21:18.304Z,58.60
2018-10-01T02:23:46.769Z,58.60
2018-10-01T02:26:15.247Z,58.70
2018-10-01T02:28:44.012Z,59.30
2018-10-01T02:31:12.496Z,59.70
2018-10-01T02:33:40.957Z,60.40
2018-10-01T02:36:09.408Z,60.60
2018-10-01T02:38:37.996Z,60.80
2018-10-01T02:41:06.785Z,61.10
2018-10-01T02:43:35.304Z,61.50
2018-10-01T02:46:05.893Z,62.00
2018-10-01T02:48:35.044Z,61.90
2018-10-01T02:51:04.357Z,62.10
2018-10-01T02:53:38.489Z,62.70
2018-10-01T02:56:07.330Z,62.70
2018-10-01T02:58:35.969Z,63.00
2018-10-01T03:01:04.679Z,63.30
2018-10-01T03:03:33.251Z,64.00
2018-10-01T03:06:02.237Z,64.70
2018-10-01T03:08:30.777Z,65.30
2018-10-01T03:10:59.971Z,65.90
2018-10-01T03:13:28.654Z,66.40
2018-10-01T03:15:57.209Z,67.60
2018-10-01T03:18:25.733Z,67.60
2018-10-01T03:20:54.372Z,68.00
2018-10-01T03:23:22.741Z,68.00
2018-10-01T03:25:51.465Z,67.90
2018-10-01T03:28:19.948Z,68.30
2018-10-01T03:30:48.437Z,68.90
2018-10-01T03:33:18.352Z,69.00
2018-10-01T03:35:46.824Z,69.70
2018-10-01T03:38:15.358Z,69.80
2018-10-01T03:40:43.925Z,70.10
2018-10-01T03:43:12.408Z,70.30
2018-10-01T03:45:40.849Z,70.70
2018-10-01T03:48:09.382Z,70.70
2018-10-01T03:50:37.894Z,71.10
2018-10-01T03:53:06.355Z,71.20
2018-10-01T03:55:35.046Z,71.50
2018-10-01T03:58:04.266Z,71.70
2018-10-01T04:00:32.858Z,71.90
2018-10-01T04:03:01.861Z,72.10
2018-10-01T04:05:30.338Z,72.40
2018-10-01T04:07:59.048Z,72.40
2018-10-01T04:10:27.691Z,72.90
2018-10-01T04:12:56.293Z,73.20
2018-10-01T04:15:25.767Z,73.30
2018-10-01T04:17:54.353Z,73.50
2018-10-01T04:20:22.830Z,73.50
2018-10-01T04:22:51.337Z,73.60
2018-10-01T04:25:19.754Z,73.40
2018-10-01T04:27:48.228Z,73.30
2018-10-01T04:30:16.706Z,74.00
2018-10-01T04:32:45.217Z,74.30
2018-10-01T04:35:16.233Z,74.50
2018-10-01T04:37:44.754Z,74.90
2018-10-01T04:40:14.821Z,74.80
2018-10-01T04:42:43.378Z,75.20
2018-10-01T04:45:11.898Z,75.40
2018-10-01T04:47:40.445Z,75.60
2018-10-01T04:50:08.913Z,76.40
2018-10-01T04:52:37.734Z,76.60
2018-10-01T04:55:06.224Z,76.90
2018-10-01T04:57:34.787Z,76.90
2018-10-01T05:00:04.066Z,77.00
2018-10-01T05:02:32.590Z,76.60
2018-10-01T05:05:01.477Z,76.60
2018-10-01T05:07:30.377Z,76.80
2018-10-01T05:10:00.962Z,76.60
2018-10-01T05:12:29.584Z,76.50
2018-10-01T05:14:58.324Z,76.50
2018-10-01T05:17:26.894Z,76.50
2018-10-01T05:19:55.356Z,76.50
2018-10-01T05:22:23.885Z,76.30
2018-10-01T05:24:52.496Z,76.90
2018-10-01T05:27:20.973Z,76.70
2018-10-01T05:29:49.694Z,76.50
2018-10-01T05:32:18.518Z,77.10
2018-10-01T05:34:46.937Z,77.40
2018-10-01T05:37:15.377Z,77.60
2018-10-01T05:39:43.833Z,77.70
2018-10-01T05:42:12.485Z,77.70
2018-10-01T05:44:41.189Z,78.20
2018-10-01T05:47:09.945Z,78.00
2018-10-01T05:49:38.491Z,78.20
2018-10-01T05:52:07.030Z,78.10
2018-10-01T05:54:35.655Z,78.20
2018-10-01T05:57:04.160Z,78.20
2018-10-01T05:59:32.675Z,77.90
2018-10-01T06:02:02.939Z,77.90
2018-10-01T06:04:31.659Z,77.90
2018-10-01T06:07:02.241Z,77.90
2018-10-01T06:09:30.925Z,78.20
2018-10-01T06:11:59.562Z,78.50
2018-10-01T06:14:28.351Z,79.00
2018-10-01T06:16:56.956Z,78.90
2018-10-01T06:19:26.490Z,79.60
2018-10-01T06:21:56.363Z,78.70
2018-10-01T06:24:28.801Z,78.60
2018-10-01T06:26:57.670Z,78.50
2018-10-01T06:29:26.323Z,79.20
2018-10-01T06:31:55.494Z,79.30
2018-10-01T06:34:24.985Z,79.00
2018-10-01T06:36:53.761Z,79.10
2018-10-01T06:39:22.543Z,79.20
2018-10-01T06:41:51.474Z,79.60
2018-10-01T06:44:20.125Z,79.90
2018-10-01T06:46:48.545Z,79.70
2018-10-01T06:49:17.235Z,79.50
2018-10-01T06:51:45.685Z,78.80
2018-10-01T06:54:14.472Z,79.90
2018-10-01T06:56:43.193Z,80.10
2018-10-01T06:59:11.999Z,79.80
2018-10-01T07:01:40.782Z,79.50
2018-10-01T07:04:09.585Z,78.30
2018-10-01T07:06:38.254Z,78.20
2018-10-01T07:09:09.201Z,78.30
2018-10-01T07:11:38.617Z,78.40
2018-10-01T07:14:07.522Z,78.40
2018-10-01T07:16:36.778Z,78.40
2018-10-01T07:19:05.465Z,78.50
2018-10-01T07:21:34.362Z,77.60
2018-10-01T07:24:03.527Z,77.20
2018-10-01T07:26:32.487Z,76.80
2018-10-01T07:29:01.243Z,76.10
2018-10-01T07:31:30.261Z,75.90
2018-10-01T07:33:59.263Z,75.90
2018-10-01T07:36:54.501Z,75.40
2018-10-01T07:39:23.426Z,74.80
2018-10-01T07:41:52.328Z,74.50
2018-10-01T07:44:20.898Z,75.60
2018-10-01T07:46:49.350Z,75.50
2018-10-01T07:49:17.876Z,75.50
2018-10-01T07:51:46.438Z,76.20
2018-10-01T07:54:15.159Z,74.80
2018-10-01T07:56:43.629Z,75.70
2018-10-01T07:59:12.083Z,74.80
2018-10-01T08:01:40.534Z,74.50
2018-10-01T08:04:09.059Z,74.20
2018-10-01T08:06:37.563Z,72.80
2018-10-01T08:09:08.233Z,72.10
2018-10-01T08:11:36.740Z,71.60
2018-10-01T08:14:05.523Z,71.40
2018-10-01T08:16:34.075Z,69.70
2018-10-01T08:19:02.740Z,69.90
2018-10-01T08:21:31.325Z,68.80
2018-10-01T08:24:00.006Z,67.80
2018-10-01T08:26:28.767Z,66.70
2018-10-01T08:28:57.384Z,65.40
2018-10-01T08:31:25.786Z,64.70
2018-10-01T08:33:54.339Z,64.40
2018-10-01T08:36:22.977Z,64.30
2018-10-01T08:38:51.552Z,62.20
2018-10-01T08:41:19.979Z,61.90
2018-10-01T08:43:48.518Z,61.10
2018-10-01T08:46:17.040Z,60.10
2018-10-01T08:48:50.834Z,58.30
2018-10-01T08:51:23.289Z,58.90
2018-10-01T08:54:56.530Z,59.70
2018-10-01T08:57:25.035Z,59.20
2018-10-01T08:59:53.517Z,60.10
2018-10-01T09:02:22.102Z,59.40
2018-10-01T09:04:50.601Z,59.70
2018-10-01T09:07:19.052Z,59.60
2018-10-01T09:09:47.537Z,60.50
2018-10-01T09:12:16.002Z,60.80
2018-10-01T09:14:44.651Z,60.60
2018-10-01T09:17:12.973Z,60.80
2018-10-01T09:19:41.567Z,61.50
2018-10-01T09:22:10.547Z,61.40
2018-10-01T09:24:39.251Z,60.80
2018-10-01T09:27:07.818Z,60.40
2018-10-01T09:29:36.501Z,60.60
2018-10-01T09:32:05.399Z,60.60
2018-10-01T09:34:35.442Z,61.30
2018-10-01T09:37:04.359Z,60.60
2018-10-01T09:39:33.460Z,60.50
2018-10-01T09:42:02.090Z,60.50
2018-10-01T09:44:30.569Z,59.80
2018-10-01T09:46:59.220Z,60.00
2018-10-01T09:49:27.782Z,60.00
2018-10-01T09:51:56.517Z,59.70
2018-10-01T09:54:24.981Z,58.70
2018-10-01T09:56:53.809Z,57.90
2018-10-01T09:59:22.240Z,57.30
2018-10-01T10:01:53.585Z,57.10
2018-10-01T10:04:22.039Z,56.30
2018-10-01T10:06:50.587Z,56.50
2018-10-01T10:09:19.033Z,55.60
2018-10-01T10:11:47.599Z,57.00
2018-10-01T10:14:16.197Z,57.90
2018-10-01T10:16:44.784Z,58.10
2018-10-01T10:19:13.130Z,58.60
2018-10-01T10:21:41.650Z,57.90
2018-10-01T10:24:10.139Z,57.50
2018-10-01T10:26:38.597Z,57.90
2018-10-01T10:29:07.080Z,57.80
2018-10-01T10:31:35.620Z,57.50
2018-10-01T10:34:04.104Z,57.50
2018-10-01T10:36:32.632Z,57.40
2018-10-01T10:39:01.185Z,57.50
2018-10-01T10:41:29.776Z,57.00
2018-10-01T10:43:58.312Z,57.20
2018-10-01T10:46:27.849Z,55.00
2018-10-01T10:48:56.401Z,54.40
2018-10-01T10:51:25.080Z,53.60
2018-10-01T10:53:53.653Z,54.30
2018-10-01T10:56:22.253Z,52.50
2018-10-01T10:58:50.808Z,51.50
2018-10-01T11:01:19.292Z,52.40
2018-10-01T11:03:48.334Z,52.40
2018-10-01T11:06:16.898Z,51.20
2018-10-01T11:08:45.446Z,52.50
2018-10-01T11:11:14.012Z,52.20
2018-10-01T11:13:42.637Z,52.70
2018-10-01T11:16:11.097Z,50.60
2018-10-01T11:18:40.438Z,50.30
2018-10-01T11:21:09.137Z,50.60
2018-10-01T11:23:37.623Z,50.70
2018-10-01T11:26:06.140Z,50.40
2018-10-01T11:28:35.319Z,48.10
2018-10-01T11:31:03.904Z,46.50
2018-10-01T11:33:32.377Z,45.70
2018-10-01T11:36:01.050Z,46.00
2018-10-01T11:38:29.879Z,46.40
2018-10-01T11:40:58.467Z,47.40
2018-10-01T11:43:27.460Z,48.40
2018-10-01T11:45:57.114Z,49.20
2018-10-01T11:48:25.888Z,49.20
2018-10-01T11:50:55.065Z,48.70
2018-10-01T11:53:23.936Z,49.00
2018-10-01T11:55:53.093Z,49.50
2018-10-01T11:58:21.811Z,49.70
2018-10-01T12:00:50.942Z,48.60
2018-10-01T12:03:19.723Z,48.30
2018-10-01T12:05:48.385Z,48.50
2018-10-01T12:08:17.069Z,46.90
2018-10-01T12:10:45.912Z,44.90
2018-10-01T12:13:15.613Z,45.30
2018-10-01T12:15:44.215Z,45.00
2018-10-01T12:18:13.246Z,44.80
2018-10-01T12:20:41.691Z,45.20
2018-10-01T12:23:10.300Z,45.80
2018-10-01T12:25:38.848Z,45.80
2018-10-01T12:28:07.820Z,46.00
2018-10-01T12:30:36.322Z,46.20
2018-10-01T12:33:05.025Z,44.80
2018-10-01T12:35:33.435Z,45.00
2018-10-01T12:38:02.104Z,45.30
2018-10-01T12:40:30.719Z,44.70
2018-10-01T12:42:59.921Z,42.80
2018-10-01T12:45:28.680Z,42.90
2018-10-01T12:47:57.481Z,42.30
2018-10-01T12:50:26.281Z,42.80
2018-10-01T12:52:54.784Z,43.10
2018-10-01T12:55:23.236Z,43.10
2018-10-01T12:57:51.696Z,43.50
2018-10-01T13:00:20.536Z,43.50
2018-10-01T13:02:49.029Z,43.20
2018-10-01T13:05:17.666Z,41.40
2018-10-01T13:07:46.066Z,41.80
2018-10-01T13:10:14.923Z,41.10
2018-10-01T13:12:43.532Z,41.50
2018-10-01T13:15:11.854Z,41.20
2018-10-01T13:17:40.426Z,42.00
2018-10-01T13:20:08.878Z,41.40
2018-10-01T13:22:37.724Z,41.50
2018-10-01T13:25:06.560Z,40.70
2018-10-01T13:27:35.057Z,41.60
2018-10-01T13:30:04.162Z,42.10
2018-10-01T13:32:33.003Z,41.50
2018-10-01T13:35:01.496Z,41.70
2018-10-01T13:37:30.851Z,42.10
2018-10-01T13:39:59.964Z,43.40
2018-10-01T13:42:28.693Z,43.90
2018-10-01T13:44:58.647Z,43.50
2018-10-01T13:47:27.951Z,45.10
2018-10-01T13:49:56.500Z,47.20
2018-10-01T13:52:25.061Z,49.30
2018-10-01T13:54:53.503Z,49.20
2018-10-01T13:57:22.013Z,48.20
2018-10-01T13:59:50.474Z,47.50
2018-10-01T14:02:19.067Z,47.10
2018-10-01T14:04:47.615Z,47.30
2018-10-01T14:07:16.119Z,46.60
2018-10-01T14:09:44.589Z,46.70
2018-10-01T14:12:13.164Z,46.00
2018-10-01T14:14:41.572Z,45.90
2018-10-01T14:17:10.104Z,46.10
2018-10-01T14:19:38.672Z,46.90
2018-10-01T14:22:07.199Z,50.00
2018-10-01T14:24:35.799Z,52.30
2018-10-01T14:27:05.176Z,55.30
2018-10-01T14:29:33.825Z,56.90
2018-10-01T14:32:02.369Z,59.70
2018-10-01T14:34:31.025Z,61.80
2018-10-01T14:36:59.809Z,67.30
2018-10-01T14:39:28.482Z,69.80
2018-10-01T14:41:57.393Z,72.00
2018-10-01T14:44:25.963Z,71.80
2018-10-01T14:46:54.717Z,72.00
2018-10-01T14:49:23.226Z,74.10
2018-10-01T14:51:51.786Z,71.00
2018-10-01T14:54:20.289Z,71.50
2018-10-01T14:56:55.663Z,70.90
2018-10-01T14:59:24.159Z,69.90
2018-10-01T15:01:52.646Z,70.10
2018-10-01T15:04:21.204Z,70.00
2018-10-01T15:06:49.717Z,69.70
2018-10-01T15:09:18.231Z,70.30
2018-10-01T15:11:47.070Z,69.80
2018-10-01T15:14:15.699Z,71.30
2018-10-01T15:16:44.093Z,73.00
2018-10-01T15:19:12.632Z,73.90
2018-10-01T15:21:41.143Z,74.00
2018-10-01T15:24:09.660Z,74.10
2018-10-01T15:26:38.149Z,73.70
2018-10-01T15:29:06.630Z,72.90
2018-10-01T15:31:35.193Z,72.90
2018-10-01T15:34:03.761Z,72.80
2018-10-01T15:36:32.472Z,71.80
2018-10-01T15:39:01.149Z,72.80
2018-10-01T15:41:29.813Z,70.80
2018-10-01T15:43:58.508Z,71.20
2018-10-01T15:46:27.716Z,71.40
2018-10-01T15:48:56.973Z,71.40
2018-10-01T15:51:25.423Z,71.90
2018-10-01T15:53:53.977Z,72.00
2018-10-01T15:56:22.450Z,71.40
2018-10-01T15:58:51.001Z,72.40
2018-10-01T16:01:19.416Z,72.30
2018-10-01T16:03:47.941Z,71.90
2018-10-01T16:06:16.465Z,72.20
2018-10-01T16:08:45.130Z,72.30
2018-10-01T16:11:13.749Z,71.80
2018-10-01T16:13:42.285Z,71.90
2018-10-01T16:16:10.897Z,71.80
2018-10-01T16:18:39.433Z,69.90
2018-10-01T16:21:07.987Z,69.20
2018-10-01T16:23:36.981Z,68.90
2018-10-01T16:26:05.837Z,67.50
2018-10-01T16:28:34.394Z,67.00
2018-10-01T16:31:02.885Z,67.70
2018-10-01T16:33:31.474Z,66.40
2018-10-01T16:36:01.733Z,65.30
2018-10-01T16:38:33.202Z,65.70
2018-10-01T16:41:04.660Z,65.80
2018-10-01T16:43:33.463Z,65.50
2018-10-01T16:46:02.094Z,65.40
2018-10-01T16:48:31.919Z,65.70
2018-10-01T16:51:01.041Z,66.40
2018-10-01T16:53:31.125Z,66.40
2018-10-01T16:56:00.325Z,66.30
2018-10-01T16:58:30.219Z,66.50
2018-10-01T17:01:00.592Z,67.40
2018-10-01T17:03:30.030Z,66.90
2018-10-01T17:05:59.705Z,67.90
2018-10-01T17:08:30.379Z,67.50
2018-10-01T17:10:59.750Z,67.60
2018-10-01T17:13:28.736Z,68.10
2018-10-01T17:15:57.441Z,68.30
2018-10-01T17:18:26.254Z,68.80
2018-10-01T17:20:55.043Z,68.30
2018-10-01T17:23:23.575Z,68.90
2018-10-01T17:25:52.135Z,68.40
2018-10-01T17:28:20.630Z,68.10
2018-10-01T17:30:49.181Z,68.20
2018-10-01T17:33:17.772Z,68.90
2018-10-01T17:35:46.303Z,68.10
2018-10-01T17:38:14.813Z,68.20
2018-10-01T17:40:43.460Z,69.20
2018-10-01T17:43:11.937Z,68.70
2018-10-01T17:45:40.704Z,67.50
2018-10-01T17:48:09.755Z,67.80
2018-10-01T17:50:38.673Z,67.70
2018-10-01T17:53:07.832Z,67.60
2018-10-01T17:55:36.727Z,68.80
2018-10-01T17:58:05.712Z,68.60
2018-10-01T18:00:35.007Z,69.20
2018-10-01T18:03:04.521Z,69.70
2018-10-01T18:05:34.098Z,69.80
2018-10-01T18:08:03.561Z,70.30
2018-10-01T18:10:32.285Z,70.40
2018-10-01T18:13:01.054Z,70.60
2018-10-01T18:15:29.884Z,70.60
2018-10-01T18:17:59.213Z,71.00
2018-10-01T18:20:27.816Z,70.50
2018-10-01T18:22:56.357Z,70.50
2018-10-01T18:25:24.912Z,70.50
2018-10-01T18:27:53.361Z,70.20
2018-10-01T18:30:21.917Z,70.40
2018-10-01T18:32:50.367Z,70.50
2018-10-01T18:35:18.956Z,70.50
2018-10-01T18:37:47.556Z,70.30
2018-10-01T18:40:16.064Z,70.20
2018-10-01T18:42:44.542Z,70.10
2018-10-01T18:45:13.138Z,70.30
2018-10-01T18:47:41.680Z,70.60
2018-10-01T18:50:10.155Z,71.00
2018-10-01T18:52:41.760Z,71.40
2018-10-01T18:55:11.274Z,71.70
2018-10-01T18:57:39.846Z,72.50
2018-10-01T19:00:09.077Z,72.90
2018-10-01T19:02:37.554Z,72.90
2018-10-01T19:05:07.050Z,73.30
2018-10-01T19:07:35.634Z,72.70
2018-10-01T19:10:05.066Z,72.60
2018-10-01T19:12:33.747Z,72.00
2018-10-01T19:15:02.957Z,72.40
2018-10-01T19:17:31.696Z,72.60
2018-10-01T19:20:00.498Z,74.10
2018-10-01T19:22:29.580Z,75.20
2018-10-01T19:24:59.708Z,73.70
2018-10-01T19:27:28.653Z,74.00
2018-10-01T19:29:57.325Z,74.40
2018-10-01T19:32:25.920Z,75.20
2018-10-01T19:34:54.429Z,74.90
2018-10-01T19:37:23.101Z,74.10
2018-10-01T19:39:51.558Z,74.90
2018-10-01T19:42:20.161Z,73.90
2018-10-01T19:44:55.454Z,74.10
2018-10-01T19:47:23.990Z,73.90
2018-10-01T19:49:52.547Z,73.10
2018-10-01T19:52:21.093Z,72.50
2018-10-01T19:54:49.881Z,73.20
2018-10-01T19:57:18.493Z,73.50
2018-10-01T19:59:46.977Z,74.40
2018-10-01T20:02:15.866Z,74.30
2018-10-01T20:04:44.729Z,74.60
2018-10-01T20:07:13.371Z,74.70
2018-10-01T20:09:44.500Z,74.50
2018-10-01T20:12:14.274Z,74.90
2018-10-01T20:14:43.352Z,74.70
2018-10-01T20:17:12.159Z,74.50
2018-10-01T20:19:40.766Z,74.50
2018-10-01T20:22:12.271Z,75.10
2018-10-01T20:24:41.778Z,74.60
2018-10-01T20:27:10.426Z,74.80
2018-10-01T20:29:39.384Z,74.20
2018-10-01T20:32:07.943Z,74.70
2018-10-01T20:34:36.377Z,74.50
2018-10-01T20:37:04.963Z,74.90
2018-10-01T20:39:34.013Z,75.10
2018-10-01T20:42:02.782Z,75.20
2018-10-01T20:44:31.405Z,75.10
2018-10-01T20:46:59.998Z,75.30
2018-10-01T20:49:28.936Z,75.10
2018-10-01T20:51:57.691Z,75.70
2018-10-01T20:54:26.200Z,75.50
2018-10-01T20:56:54.846Z,76.20
2018-10-01T20:59:24.029Z,76.70
2018-10-01T21:01:52.533Z,76.70
2018-10-01T21:04:21.061Z,76.70
2018-10-01T21:06:49.953Z,76.70
2018-10-01T21:09:18.428Z,76.70
2018-10-01T21:11:46.881Z,76.60
2018-10-01T21:14:15.462Z,76.60
2018-10-01T21:16:43.940Z,76.60
2018-10-01T21:19:12.429Z,76.60
2018-10-01T21:21:40.924Z,76.20
2018-10-01T21:24:09.520Z,76.60
2018-10-01T21:26:38.172Z,76.10
2018-10-01T21:29:06.837Z,76.00
2018-10-01T21:31:35.300Z,76.50
2018-10-01T21:34:03.936Z,76.50
2018-10-01T21:36:32.492Z,75.90
2018-10-01T21:39:02.200Z,76.00
2018-10-01T21:41:30.797Z,75.80
2018-10-01T21:43:59.799Z,75.50
2018-10-01T21:46:28.286Z,75.60
2018-10-01T21:48:56.858Z,75.30
2018-10-01T21:51:26.074Z,75.30
2018-10-01T21:53:54.643Z,75.30
2018-10-01T21:56:23.150Z,75.40
2018-10-01T21:58:51.742Z,75.90
2018-10-01T22:01:25.553Z,76.30
2018-10-01T22:03:55.501Z,75.90
2018-10-01T22:06:24.072Z,75.70
2018-10-01T22:08:52.724Z,75.80
2018-10-01T22:11:21.227Z,76.20
2018-10-01T22:13:49.728Z,76.30
2018-10-01T22:16:18.298Z,75.80
2018-10-01T22:18:46.836Z,76.30
2018-10-01T22:21:15.372Z,76.30
2018-10-01T22:23:43.927Z,76.20
2018-10-01T22:26:12.474Z,76.40
2018-10-01T22:28:41.798Z,76.20
2018-10-01T22:31:10.276Z,76.20
2018-10-01T22:33:38.880Z,76.20
2018-10-01T22:36:07.401Z,76.10
2018-10-01T22:38:35.902Z,76.20
2018-10-01T22:41:04.410Z,76.20
2018-10-01T22:43:33.057Z,76.10
2018-10-01T22:46:01.607Z,76.20
2018-10-01T22:48:30.099Z,76.20
2018-10-01T22:50:58.861Z,76.20
2018-10-01T22:53:27.472Z,76.20
2018-10-01T22:55:55.963Z,76.20
2018-10-01T22:58:24.612Z,76.20
2018-10-01T23:00:53.165Z,76.30
2018-10-01T23:03:21.742Z,76.70
2018-10-01T23:05:50.341Z,77.00
2018-10-01T23:08:18.972Z,77.30
2018-10-01T23:10:47.526Z,77.10
2018-10-01T23:13:15.965Z,77.30
2018-10-01T23:15:44.506Z,78.70
2018-10-01T23:18:13.040Z,78.90
2018-10-01T23:20:41.606Z,79.10
2018-10-01T23:23:10.060Z,78.60
2018-10-01T23:25:38.844Z,78.50
2018-10-01T23:28:07.459Z,78.20
2018-10-01T23:30:35.995Z,78.80
2018-10-01T23:33:04.537Z,78.40
2018-10-01T23:35:33.303Z,78.10
2018-10-01T23:38:01.973Z,77.90
2018-10-01T23:40:30.710Z,78.00
2018-10-01T23:42:59.360Z,77.90
2018-10-01T23:45:29.848Z,78.10
2018-10-01T23:47:58.679Z,77.80
2018-10-01T23:50:27.480Z,78.20
2018-10-01T23:52:56.252Z,78.50
2018-10-01T23:55:25.713Z,78.70
2018-10-01T23:57:54.297Z,78.80
